Time;durP1;ratioP1;P1;durP2;ratioP2;P2;SDS_P1;SDS_P2;PMS_P1;PMS_P2;Temp;Humidity;BMP_temperature;BMP_pressure;BME280_temperature;BME280_humidity;BME280_pressure;Samples;Min_cycle;Max_cycle;Signal;HPM_P1;HPM_P2
2022/06/15 00:00:19;;;;;;;;;;;12.10;99.90;;;;;;4968318;28;19910;-60
2022/06/15 00:02:44;;;;;;;;;;;12.10;99.90;;;;;;4968446;28;20502;-60
2022/06/15 00:05:10;;;;;;;;;;;12.10;99.90;;;;;;4968112;28;19910;-60
2022/06/15 00:07:36;;;;;;;;;;;12.10;99.90;;;;;;4971023;28;19953;-60
2022/06/15 00:10:01;;;;;;;;;;;12.00;99.90;;;;;;4971207;28;19914;-60
2022/06/15 00:12:27;;;;;;;;;;;12.00;99.90;;;;;;4971228;28;19960;-60
2022/06/15 00:14:52;;;;;;;;;;;12.00;99.90;;;;;;4971272;28;19910;-60
2022/06/15 00:17:18;;;;;;;;;;;12.00;99.90;;;;;;4971301;28;19914;-60
2022/06/15 00:19:43;;;;;;;;;;;12.00;99.90;;;;;;4971189;28;19910;-60
2022/06/15 00:22:09;;;;;;;;;;;12.00;99.90;;;;;;4971191;28;19921;-60
2022/06/15 00:24:34;;;;;;;;;;;11.90;99.90;;;;;;4971121;28;20284;-60
2022/06/15 00:27:00;;;;;;;;;;;11.90;99.90;;;;;;4970290;28;19945;-60
2022/06/15 00:29:25;;;;;;;;;;;11.90;99.90;;;;;;4970632;28;19925;-60
2022/06/15 00:31:51;;;;;;;;;;;11.80;99.90;;;;;;4971282;28;19910;-60
2022/06/15 00:34:16;;;;;;;;;;;11.80;99.90;;;;;;4970871;28;20012;-60
2022/06/15 00:36:42;;;;;;;;;;;11.70;99.90;;;;;;4970781;28;19918;-60
2022/06/15 00:39:08;;;;;;;;;;;11.60;99.90;;;;;;4970828;28;19983;-60
2022/06/15 00:41:35;;;;;;;;;;;11.50;99.90;;;;;;4971311;28;19961;-60
2022/06/15 00:44:21;;;;;;;;;;;11.50;99.90;;;;;;4974797;28;19949;-60
2022/06/15 00:46:51;;;;;;;;;;;11.50;99.90;;;;;;4970379;28;19945;-60
2022/06/15 00:49:21;;;;;;;;;;;11.50;99.90;;;;;;4974364;28;20008;-60
2022/06/15 00:51:49;;;;;;;;;;;11.40;99.90;;;;;;4974581;28;19906;-61
2022/06/15 00:54:16;;;;;;;;;;;11.40;99.90;;;;;;4974647;28;19917;-60
2022/06/15 00:56:41;;;;;;;;;;;11.30;99.90;;;;;;4974375;28;19913;-60
2022/06/15 00:59:09;;;;;;;;;;;11.30;99.90;;;;;;4957527;28;19907;-60
2022/06/15 01:01:35;;;;;;;;;;;11.40;99.90;;;;;;4954268;29;20355;-60
2022/06/15 01:04:01;;;;;;;;;;;11.30;99.90;;;;;;4951756;29;19907;-60
2022/06/15 01:06:35;;;;;;;;;;;11.30;99.90;;;;;;4965003;28;19968;-60
2022/06/15 01:09:39;;;;;;;;;;;11.20;99.90;;;;;;4974220;28;19914;-60
2022/06/15 01:12:25;;;;;;;;;;;11.20;99.90;;;;;;4952329;29;19910;-60
2022/06/15 01:14:50;;;;;;;;;;;11.20;99.90;;;;;;4924330;29;20017;-60
2022/06/15 01:17:30;;;;;;;;;;;11.10;99.90;;;;;;4934496;29;19998;-61
2022/06/15 01:20:08;;;;;;;;;;;11.10;99.90;;;;;;4935410;29;20287;-60
2022/06/15 01:22:36;;;;;;;;;;;11.10;99.90;;;;;;4935252;29;19911;-60
2022/06/15 01:25:21;;;;;;;;;;;11.10;99.90;;;;;;4935469;29;20360;-60
2022/06/15 01:27:49;;;;;;;;;;;11.10;99.90;;;;;;4935445;29;19911;-60
2022/06/15 01:30:33;;;;;;;;;;;11.10;99.90;;;;;;4935302;29;19930;-60
2022/06/15 01:32:58;;;;;;;;;;;11.10;99.90;;;;;;4935544;29;19961;-60
2022/06/15 01:35:27;;;;;;;;;;;11.00;99.90;;;;;;4945049;28;20008;-60
2022/06/15 01:37:53;;;;;;;;;;;10.90;99.90;;;;;;4973601;28;19906;-60
2022/06/15 01:40:22;;;;;;;;;;;10.80;99.90;;;;;;4973538;28;19918;-60
2022/06/15 01:42:56;;;;;;;;;;;10.80;99.90;;;;;;4973514;28;19918;-60
2022/06/15 01:45:24;;;;;;;;;;;10.80;99.90;;;;;;4973118;28;19913;-60
2022/06/15 01:47:51;;;;;;;;;;;10.80;99.90;;;;;;4970464;28;19910;-60
2022/06/15 01:50:22;;;;;;;;;;;10.70;99.90;;;;;;4970062;28;19914;-60
2022/06/15 01:52:51;;;;;;;;;;;10.70;99.90;;;;;;4973244;28;20383;-60
2022/06/15 01:55:22;;;;;;;;;;;10.60;99.90;;;;;;4972463;28;19906;-61
2022/06/15 01:57:50;;;;;;;;;;;10.60;99.90;;;;;;4973317;28;19906;-59
2022/06/15 02:00:19;;;;;;;;;;;10.60;99.90;;;;;;4973187;28;19917;-60
2022/06/15 02:02:51;;;;;;;;;;;10.50;99.90;;;;;;4973229;28;19910;-59
2022/06/15 02:05:32;;;;;;;;;;;10.40;99.90;;;;;;4973303;28;19910;-60
2022/06/15 02:08:16;;;;;;;;;;;10.40;99.90;;;;;;4970931;28;20398;-60
2022/06/15 02:10:47;;;;;;;;;;;10.30;99.90;;;;;;4970036;28;19933;-60
2022/06/15 02:13:31;;;;;;;;;;;10.20;99.90;;;;;;4971782;28;19913;-61
2022/06/15 02:16:05;;;;;;;;;;;10.10;99.90;;;;;;4972955;28;20394;-60
2022/06/15 02:18:32;;;;;;;;;;;10.10;99.90;;;;;;4972682;28;20379;-60
2022/06/15 02:21:00;;;;;;;;;;;10.10;99.90;;;;;;4972696;28;19917;-60
2022/06/15 02:23:27;;;;;;;;;;;10.20;99.90;;;;;;4972791;28;19956;-60
2022/06/15 02:25:53;;;;;;;;;;;10.20;99.90;;;;;;4972802;28;20299;-60
2022/06/15 02:28:21;;;;;;;;;;;10.30;99.90;;;;;;4972970;28;19938;-60
2022/06/15 02:30:47;;;;;;;;;;;10.40;99.90;;;;;;4972706;28;20005;-60
2022/06/15 02:33:19;;;;;;;;;;;10.50;99.90;;;;;;4972614;28;20053;-60
2022/06/15 02:35:45;;;;;;;;;;;10.60;99.90;;;;;;4972341;28;19917;-60
2022/06/15 02:38:10;;;;;;;;;;;10.70;99.90;;;;;;4972818;28;19906;-60
2022/06/15 02:40:36;;;;;;;;;;;10.70;99.90;;;;;;4970209;28;20303;-60
2022/06/15 02:43:02;;;;;;;;;;;10.80;99.90;;;;;;4972560;28;19917;-60
2022/06/15 02:45:34;;;;;;;;;;;10.70;99.90;;;;;;4972383;28;20352;-60
2022/06/15 02:48:01;;;;;;;;;;;10.70;99.90;;;;;;4972665;28;19910;-60
2022/06/15 02:50:29;;;;;;;;;;;10.80;99.90;;;;;;4972472;28;19914;-60
2022/06/15 02:53:05;;;;;;;;;;;10.80;99.90;;;;;;4972294;28;19976;-60
2022/06/15 02:55:31;;;;;;;;;;;10.70;99.90;;;;;;4958286;28;20137;-60
2022/06/15 02:58:06;;;;;;;;;;;10.70;99.90;;;;;;4952933;29;19918;-60
2022/06/15 03:00:32;;;;;;;;;;;10.70;99.90;;;;;;4952902;29;19917;-60
2022/06/15 03:02:57;;;;;;;;;;;10.60;99.90;;;;;;4952736;29;19993;-60
2022/06/15 03:05:23;;;;;;;;;;;10.60;99.90;;;;;;4956923;28;19965;-60
2022/06/15 03:07:48;;;;;;;;;;;10.60;99.90;;;;;;4958165;28;19906;-60
2022/06/15 03:10:14;;;;;;;;;;;10.60;99.90;;;;;;4952742;29;19918;-60
2022/06/15 03:12:39;;;;;;;;;;;10.50;99.90;;;;;;4952698;29;19945;-60
2022/06/15 03:15:05;;;;;;;;;;;10.40;99.90;;;;;;4952587;29;19906;-60
2022/06/15 03:17:31;;;;;;;;;;;10.40;99.90;;;;;;4952477;28;19966;-60
2022/06/15 03:19:56;;;;;;;;;;;10.40;99.90;;;;;;4950623;29;19910;-60
2022/06/15 03:22:22;;;;;;;;;;;10.30;99.90;;;;;;4949207;29;20327;-60
2022/06/15 03:24:47;;;;;;;;;;;10.30;99.90;;;;;;4949377;29;19906;-60
2022/06/15 03:27:13;;;;;;;;;;;10.20;99.90;;;;;;4949656;29;20009;-60
2022/06/15 03:29:38;;;;;;;;;;;10.20;99.90;;;;;;4949705;29;19924;-60
2022/06/15 03:32:04;;;;;;;;;;;10.20;99.90;;;;;;4950819;29;19906;-60
2022/06/15 03:34:30;;;;;;;;;;;10.10;99.90;;;;;;4952133;29;19910;-60
2022/06/15 03:36:56;;;;;;;;;;;10.00;99.90;;;;;;4969180;28;20033;-60
2022/06/15 03:39:21;;;;;;;;;;;10.00;99.90;;;;;;4971476;28;19957;-60
2022/06/15 03:41:48;;;;;;;;;;;10.00;99.90;;;;;;4971458;28;19926;-60
2022/06/15 03:44:13;;;;;;;;;;;10.10;99.90;;;;;;4971549;28;20374;-60
2022/06/15 03:46:39;;;;;;;;;;;10.10;99.90;;;;;;4971700;28;19917;-60
2022/06/15 03:49:05;;;;;;;;;;;10.10;99.90;;;;;;4971389;28;20271;-60
2022/06/15 03:51:30;;;;;;;;;;;10.20;99.90;;;;;;4971238;28;19910;-60
2022/06/15 03:53:57;;;;;;;;;;;10.20;99.90;;;;;;4971427;28;19913;-60
2022/06/15 03:56:23;;;;;;;;;;;10.20;99.90;;;;;;4971373;28;20382;-60
2022/06/15 03:58:48;;;;;;;;;;;10.20;99.90;;;;;;4971338;28;19993;-60
2022/06/15 04:01:14;;;;;;;;;;;10.10;99.90;;;;;;4971375;28;19953;-61
2022/06/15 04:03:39;;;;;;;;;;;10.10;99.90;;;;;;4971461;28;19949;-60
2022/06/15 04:06:05;;;;;;;;;;;10.10;99.90;;;;;;4969675;28;19906;-60
2022/06/15 04:08:50;;;;;;;;;;;10.10;99.90;;;;;;4968302;28;19921;-60
2022/06/15 04:14:00;;;;;;;;;;;10.10;99.90;;;;;;4968281;28;19913;-60
2022/06/15 04:16:28;;;;;;;;;;;10.10;99.90;;;;;;4958603;28;19933;-60
2022/06/15 04:18:54;;;;;;;;;;;10.10;99.90;;;;;;4952609;28;20404;-60
2022/06/15 04:21:19;;;;;;;;;;;10.10;99.90;;;;;;4951017;29;19914;-60
2022/06/15 04:23:45;;;;;;;;;;;10.10;99.90;;;;;;4952117;29;19911;-61
2022/06/15 04:26:10;;;;;;;;;;;10.20;99.90;;;;;;4951615;29;19906;-60
2022/06/15 04:28:37;;;;;;;;;;;10.30;99.90;;;;;;4952027;29;19966;-60
2022/06/15 04:31:03;;;;;;;;;;;10.30;99.90;;;;;;4952914;29;20303;-60
2022/06/15 04:33:29;;;;;;;;;;;10.40;99.90;;;;;;4952602;28;20438;-61
2022/06/15 04:35:55;;;;;;;;;;;10.40;99.90;;;;;;4960818;28;19906;-60
2022/06/15 04:38:21;;;;;;;;;;;10.40;99.90;;;;;;4972921;28;19906;-60
2022/06/15 04:40:46;;;;;;;;;;;10.50;99.90;;;;;;4974524;28;19923;-60
2022/06/15 04:43:12;;;;;;;;;;;10.50;99.90;;;;;;4974734;28;19906;-60
2022/06/15 04:45:37;;;;;;;;;;;10.60;99.90;;;;;;4974911;28;19902;-61
2022/06/15 04:48:03;;;;;;;;;;;10.70;99.90;;;;;;4974440;28;20004;-60
2022/06/15 04:50:29;;;;;;;;;;;10.70;99.90;;;;;;4954880;28;19925;-60
2022/06/15 04:52:55;;;;;;;;;;;10.70;99.90;;;;;;4955413;29;19913;-60
2022/06/15 04:55:21;;;;;;;;;;;10.80;99.90;;;;;;4955209;29;19914;-59
2022/06/15 04:57:48;;;;;;;;;;;10.70;99.90;;;;;;4955434;29;19906;-60
2022/06/15 05:00:17;;;;;;;;;;;10.90;99.90;;;;;;4954680;29;20291;-60
2022/06/15 05:02:43;;;;;;;;;;;11.10;99.90;;;;;;4952020;29;19957;-60
2022/06/15 05:05:09;;;;;;;;;;;11.20;99.90;;;;;;4954379;28;19906;-60
2022/06/15 05:07:35;;;;;;;;;;;11.40;99.90;;;;;;4971200;28;20002;-60
2022/06/15 05:10:00;;;;;;;;;;;11.50;99.90;;;;;;4968430;28;19918;-60
2022/06/15 05:12:26;;;;;;;;;;;11.60;99.90;;;;;;4954436;29;19949;-60
2022/06/15 05:14:51;;;;;;;;;;;11.70;99.90;;;;;;4954939;29;19928;-61
2022/06/15 05:17:18;;;;;;;;;;;11.70;99.90;;;;;;4954921;29;19906;-61
2022/06/15 05:19:44;;;;;;;;;;;11.90;99.90;;;;;;4954798;29;19907;-61
2022/06/15 05:22:10;;;;;;;;;;;12.00;99.90;;;;;;4954638;29;20004;-61
2022/06/15 05:24:36;;;;;;;;;;;12.10;99.90;;;;;;4954731;29;20001;-61
2022/06/15 05:27:01;;;;;;;;;;;12.20;99.90;;;;;;4952513;29;19907;-61
2022/06/15 05:29:27;;;;;;;;;;;12.20;99.90;;;;;;4951611;28;19962;-60
2022/06/15 05:31:53;;;;;;;;;;;12.30;99.90;;;;;;4951702;29;19921;-60
2022/06/15 05:34:18;;;;;;;;;;;12.30;99.90;;;;;;4951846;29;20319;-62
2022/06/15 05:36:44;;;;;;;;;;;12.40;99.90;;;;;;4967620;28;19910;-60
2022/06/15 05:39:09;;;;;;;;;;;12.50;99.90;;;;;;4973610;28;19910;-60
2022/06/15 05:41:35;;;;;;;;;;;12.60;99.90;;;;;;4973560;28;19914;-60
2022/06/15 05:46:44;;;;;;;;;;;12.70;99.90;;;;;;4973809;28;19912;-60
2022/06/15 05:49:10;;;;;;;;;;;12.90;99.90;;;;;;4973444;28;19914;-60
2022/06/15 05:51:36;;;;;;;;;;;13.00;99.90;;;;;;4973341;28;19912;-60
2022/06/15 05:54:02;;;;;;;;;;;13.10;99.90;;;;;;4973706;28;19992;-60
2022/06/15 05:56:28;;;;;;;;;;;13.30;99.90;;;;;;4971775;28;19923;-60
2022/06/15 05:58:53;;;;;;;;;;;13.40;99.90;;;;;;4970033;28;19949;-61
2022/06/15 06:01:27;;;;;;;;;;;13.60;99.90;;;;;;4970123;28;20001;-61
2022/06/15 06:03:53;;;;;;;;;;;13.70;99.90;;;;;;4969681;28;19917;-61
2022/06/15 06:06:19;;;;;;;;;;;13.90;99.90;;;;;;4970600;28;19905;-61
2022/06/15 06:08:45;;;;;;;;;;;14.10;99.90;;;;;;4973026;28;19918;-61
2022/06/15 06:11:10;;;;;;;;;;;14.20;99.90;;;;;;4973232;28;20000;-61
2022/06/15 06:13:36;;;;;;;;;;;14.30;99.90;;;;;;4972854;28;19965;-60
2022/06/15 06:16:01;;;;;;;;;;;14.50;99.90;;;;;;4970494;28;19932;-61
2022/06/15 06:18:27;;;;;;;;;;;14.70;99.90;;;;;;4970209;28;19910;-61
2022/06/15 06:20:52;;;;;;;;;;;15.00;99.90;;;;;;4970905;28;19913;-61
2022/06/15 06:23:18;;;;;;;;;;;15.10;99.90;;;;;;4971461;28;19910;-61
2022/06/15 06:25:46;;;;;;;;;;;15.30;99.90;;;;;;4969812;28;19909;-61
2022/06/15 06:28:21;;;;;;;;;;;15.50;99.90;;;;;;4968765;28;19910;-61
2022/06/15 06:30:46;;;;;;;;;;;15.90;99.90;;;;;;4971034;28;19918;-61
2022/06/15 06:33:12;;;;;;;;;;;16.00;99.90;;;;;;4969668;28;20252;-61
2022/06/15 06:35:38;;;;;;;;;;;16.40;99.90;;;;;;4969020;28;20455;-61
2022/06/15 06:38:04;;;;;;;;;;;16.70;99.90;;;;;;4969459;28;19913;-61
2022/06/15 06:40:29;;;;;;;;;;;16.90;99.90;;;;;;4995934;28;19918;-62
2022/06/15 06:42:55;;;;;;;;;;;17.40;99.90;;;;;;4972495;28;19949;-62
2022/06/15 06:45:20;;;;;;;;;;;17.60;99.90;;;;;;4972441;28;19914;-62
2022/06/15 06:47:46;;;;;;;;;;;17.90;99.90;;;;;;4972423;28;19920;-62
2022/06/15 06:50:11;;;;;;;;;;;18.20;99.90;;;;;;4972206;28;19914;-62
2022/06/15 06:52:37;;;;;;;;;;;18.30;99.90;;;;;;4954651;28;19906;-62
2022/06/15 06:55:03;;;;;;;;;;;18.30;99.90;;;;;;4953116;29;19910;-61
2022/06/15 06:57:28;;;;;;;;;;;18.40;99.90;;;;;;4953102;28;19913;-61
2022/06/15 06:59:54;;;;;;;;;;;18.30;99.90;;;;;;4952723;29;19910;-62
2022/06/15 07:02:19;;;;;;;;;;;18.10;99.90;;;;;;4950270;28;19917;-62
2022/06/15 07:04:45;;;;;;;;;;;17.90;99.90;;;;;;4949793;29;19910;-62
2022/06/15 07:07:10;;;;;;;;;;;18.00;99.90;;;;;;4969762;28;19906;-62
2022/06/15 07:09:36;;;;;;;;;;;18.20;99.90;;;;;;4971594;28;19914;-62
2022/06/15 07:12:03;;;;;;;;;;;18.50;99.90;;;;;;4971854;28;20248;-62
2022/06/15 07:14:28;;;;;;;;;;;18.70;99.90;;;;;;4972222;28;19914;-61
2022/06/15 07:16:54;;;;;;;;;;;19.00;99.90;;;;;;4971950;28;20333;-62
2022/06/15 07:19:19;;;;;;;;;;;19.10;99.90;;;;;;4971732;28;19906;-62
2022/06/15 07:21:45;;;;;;;;;;;19.40;99.90;;;;;;4953333;28;20388;-62
2022/06/15 07:24:10;;;;;;;;;;;19.60;99.90;;;;;;4952485;28;19907;-62
2022/06/15 07:26:41;;;;;;;;;;;19.60;99.90;;;;;;4952398;28;20272;-62
2022/06/15 07:29:08;;;;;;;;;;;19.70;99.90;;;;;;4952656;28;19945;-63
2022/06/15 07:31:35;;;;;;;;;;;19.70;99.90;;;;;;4952335;28;19914;-62
2022/06/15 07:34:01;;;;;;;;;;;19.80;99.90;;;;;;4952745;28;19917;-62
2022/06/15 07:36:26;;;;;;;;;;;20.10;99.90;;;;;;4965267;28;19910;-62
2022/06/15 07:38:53;;;;;;;;;;;20.30;99.90;;;;;;4971772;28;19933;-62
2022/06/15 07:41:19;;;;;;;;;;;20.50;99.90;;;;;;4971922;28;19914;-62
2022/06/15 07:43:44;;;;;;;;;;;20.60;99.90;;;;;;4972220;28;19913;-63
2022/06/15 07:46:10;;;;;;;;;;;20.60;99.90;;;;;;4971984;28;19906;-62
